Terminal Aerodrome Forecast
Issued by NWS Newport/Morehead City, NC

Home | Current Version | Previous Version | Graphics & Text | Print | Product List | Glossary On
Versions: 1 2 3 4 5 6 7 8 9 10 11 12 13 14 15 16 17 18 19 20 21 22 23 24 25 26
000
FTUS42 KMHX 181720
TAFEWN
TAF
KEWN 181720Z 1818/1918 VRB05KT P6SM VCSH SCT025 BKN050
     FM190000 VRB04KT P6SM BKN050 OVC100
     FM191500 09011KT P6SM VCSH SCT025 BKN040=

USA.gov is the U.S. government's official web portal to all federal, state and local government web resources and services.